Lake Arrowhead, California
Current Conditions -  °F | °C
As of 6:50 AM on Monday 24 Nov 2014 (Local Time) from KSBD Reporting Station
Scattered Clouds Scattered Clouds  
Wind Chill: 37°   Ceiling: Unl
Heat Index: 41°   Visibility: 10mi
Dew Point: 16°   Wind: 6mph
Humidity: 36%   Direction: 90°E
Pressure: 30.22"   Gusts: NA
Location:  34.26°N, 117.21°W
Report Text: KSBD 241450Z 09005KT 10SM SCT200 05/M09 A3022
Loading
Personal Weather Stations






























Interactive Weather Map New forecast layout! Learn more

10-Day Weather Forecast

Advertisements
Track Severe Weather on mobile